createdAt,value
2023-01-03T00:02:18.335Z,1.30
2023-01-03T00:04:49.409Z,1.00
2023-01-03T00:07:34.008Z,1.20
2023-01-03T00:10:10.510Z,1.20
2023-01-03T00:12:38.321Z,0.98
2023-01-03T00:15:05.977Z,1.98
2023-01-03T00:17:33.638Z,1.00
2023-01-03T00:20:01.207Z,0.93
2023-01-03T00:22:32.379Z,3.22
2023-01-03T00:24:59.819Z,0.45
2023-01-03T00:27:27.971Z,2.63
2023-01-03T00:29:55.581Z,1.08
2023-01-03T00:32:23.143Z,3.20
2023-01-03T00:34:50.454Z,1.98
2023-01-03T00:37:17.997Z,1.13
2023-01-03T00:39:45.330Z,1.88
2023-01-03T00:42:13.342Z,0.90
2023-01-03T00:44:40.684Z,1.60
2023-01-03T00:47:08.499Z,2.83
2023-01-03T00:49:36.038Z,0.68
2023-01-03T00:52:03.920Z,0.80
2023-01-03T00:54:31.184Z,0.70
2023-01-03T00:56:58.750Z,1.08
2023-01-03T00:59:26.279Z,1.67
2023-01-03T01:01:56.004Z,5.57
2023-01-03T01:04:28.697Z,0.35
2023-01-03T01:06:58.721Z,0.32
2023-01-03T01:09:31.913Z,1.33
2023-01-03T01:11:59.464Z,1.90
2023-01-03T01:14:29.236Z,2.42
2023-01-03T01:17:01.843Z,3.00
2023-01-03T01:19:36.548Z,1.15
2023-01-03T01:22:04.647Z,1.63
2023-01-03T01:24:32.944Z,0.77
2023-01-03T01:27:01.381Z,2.47
2023-01-03T01:29:28.617Z,2.78
2023-01-03T01:31:56.587Z,2.42
2023-01-03T01:34:24.165Z,2.38
2023-01-03T01:36:51.870Z,7.25
2023-01-03T01:39:25.875Z,3.38
2023-01-03T01:42:20.018Z,3.60
2023-01-03T01:44:58.003Z,4.82
2023-01-03T01:47:38.653Z,8.48
2023-01-03T01:50:38.539Z,1.65
2023-01-03T01:53:12.643Z,2.83
2023-01-03T01:55:53.810Z,2.63
2023-01-03T01:58:26.201Z,6.20
2023-01-03T02:00:54.304Z,2.40
2023-01-03T02:03:21.944Z,1.80
2023-01-03T02:05:53.256Z,3.75
2023-01-03T02:08:22.071Z,1.58
2023-01-03T02:11:01.249Z,3.63
2023-01-03T02:14:02.639Z,2.45
2023-01-03T02:17:06.895Z,2.25
2023-01-03T02:19:53.257Z,3.65
2023-01-03T02:22:32.626Z,2.45
2023-01-03T02:25:18.270Z,2.08
2023-01-03T02:28:17.873Z,1.77
2023-01-03T02:31:01.894Z,2.67
2023-01-03T02:33:37.739Z,2.08
2023-01-03T02:36:31.752Z,4.35
2023-01-03T02:39:12.970Z,3.25
2023-01-03T02:42:18.912Z,9.40
2023-01-03T02:45:11.127Z,1.48
2023-01-03T02:48:01.348Z,2.40
2023-01-03T02:50:32.501Z,4.82
2023-01-03T02:53:04.006Z,3.03
2023-01-03T02:55:33.856Z,3.20
2023-01-03T02:58:13.027Z,5.35
2023-01-03T03:00:44.286Z,5.05
2023-01-03T03:03:17.070Z,3.05
2023-01-03T03:05:56.823Z,3.60
2023-01-03T03:08:24.540Z,4.00
2023-01-03T03:11:12.955Z,3.25
2023-01-03T03:13:52.817Z,4.28
2023-01-03T03:16:49.563Z,2.00
2023-01-03T03:19:41.655Z,1.65
2023-01-03T03:22:40.643Z,3.28
2023-01-03T03:25:23.178Z,2.45
2023-01-03T03:28:12.911Z,4.32
2023-01-03T03:30:44.108Z,6.60
2023-01-03T03:33:14.203Z,2.33
2023-01-03T03:35:50.796Z,4.03
2023-01-03T03:38:25.702Z,4.10
2023-01-03T03:41:31.440Z,4.43
2023-01-03T03:44:41.105Z,3.10
2023-01-03T03:47:42.432Z,1.77
2023-01-03T03:50:34.936Z,2.08
2023-01-03T03:53:06.011Z,3.22
2023-01-03T03:55:49.779Z,1.95
2023-01-03T03:58:21.885Z,4.47
2023-01-03T04:03:21.518Z,2.03
2023-01-03T04:05:54.748Z,3.33
2023-01-03T04:08:22.472Z,2.88
2023-01-03T04:10:50.042Z,1.80
2023-01-03T04:13:18.005Z,3.55
2023-01-03T04:15:45.286Z,2.85
2023-01-03T04:18:13.018Z,9.70
2023-01-03T04:20:40.268Z,1.98
2023-01-03T04:23:07.808Z,5.50
2023-01-03T04:25:35.143Z,2.28
2023-01-03T04:28:02.760Z,2.42
2023-01-03T04:30:30.048Z,1.27
2023-01-03T04:32:57.578Z,1.58
2023-01-03T04:35:24.869Z,4.80
2023-01-03T04:37:52.378Z,4.32
2023-01-03T04:40:19.595Z,1.95
2023-01-03T04:43:05.690Z,2.97
2023-01-03T04:45:33.014Z,4.55
2023-01-03T04:48:01.391Z,2.97
2023-01-03T04:50:30.337Z,2.65
2023-01-03T04:52:58.618Z,3.65
2023-01-03T04:55:26.470Z,4.97
2023-01-03T04:57:54.136Z,3.35
2023-01-03T05:00:21.508Z,3.72
2023-01-03T05:02:49.289Z,4.60
2023-01-03T05:05:16.691Z,6.82
2023-01-03T05:07:44.239Z,5.68
2023-01-03T05:10:11.527Z,7.90
2023-01-03T05:12:39.140Z,5.68
2023-01-03T05:15:07.125Z,7.40
2023-01-03T05:17:34.684Z,3.13
2023-01-03T05:20:20.517Z,3.88
2023-01-03T05:23:06.617Z,3.03
2023-01-03T05:25:51.991Z,4.65
2023-01-03T05:28:21.957Z,3.70
2023-01-03T05:30:49.530Z,3.90
2023-01-03T05:33:17.192Z,5.40
2023-01-03T05:35:47.756Z,4.18
2023-01-03T05:38:15.387Z,2.67
2023-01-03T05:40:43.158Z,3.08
2023-01-03T05:43:10.724Z,4.63
2023-01-03T05:45:39.311Z,10.52
2023-01-03T05:48:08.201Z,4.22
2023-01-03T05:50:35.711Z,4.40
2023-01-03T05:53:04.018Z,4.78
2023-01-03T05:55:31.318Z,5.32
2023-01-03T05:57:58.992Z,4.97
2023-01-03T06:00:26.249Z,3.20
2023-01-03T06:02:53.880Z,8.98
2023-01-03T06:05:21.180Z,2.42
2023-01-03T06:07:48.718Z,3.15
2023-01-03T06:10:16.006Z,9.57
2023-01-03T06:12:43.534Z,5.22
2023-01-03T06:15:11.373Z,6.03
2023-01-03T06:17:58.017Z,6.75
2023-01-03T06:20:29.357Z,2.28
2023-01-03T06:22:57.135Z,7.38
2023-01-03T06:25:24.910Z,7.10
2023-01-03T06:27:52.484Z,4.70
2023-01-03T06:30:20.977Z,5.03
2023-01-03T06:32:48.710Z,7.25
2023-01-03T06:35:16.006Z,7.50
2023-01-03T06:37:43.610Z,3.00
2023-01-03T06:40:11.328Z,5.65
2023-01-03T06:42:45.133Z,4.60
2023-01-03T06:45:32.572Z,2.05
2023-01-03T06:48:27.484Z,6.57
2023-01-03T06:51:14.088Z,3.35
2023-01-03T06:53:43.264Z,2.10
2023-01-03T06:56:11.776Z,6.25
2023-01-03T06:58:39.301Z,5.03
2023-01-03T07:01:06.870Z,4.28
2023-01-03T07:03:34.688Z,5.72
2023-01-03T07:06:01.963Z,12.43
2023-01-03T07:08:29.604Z,7.43
2023-01-03T07:10:57.000Z,3.20
2023-01-03T07:13:43.173Z,3.35
2023-01-03T07:16:15.346Z,4.05
2023-01-03T07:18:43.261Z,5.05
2023-01-03T07:21:10.687Z,8.73
2023-01-03T07:23:38.816Z,5.28
2023-01-03T07:26:06.732Z,4.55
2023-01-03T07:28:34.369Z,5.45
2023-01-03T07:31:06.439Z,5.05
2023-01-03T07:33:34.558Z,9.35
2023-01-03T07:36:11.003Z,6.20
2023-01-03T07:38:44.686Z,7.25
2023-01-03T07:41:13.309Z,6.97
2023-01-03T07:43:45.046Z,5.03
2023-01-03T07:46:16.082Z,5.32
2023-01-03T07:48:45.959Z,4.85
2023-01-03T07:51:14.838Z,3.38
2023-01-03T07:53:44.032Z,4.53
2023-01-03T07:56:14.399Z,5.20
2023-01-03T07:58:43.399Z,5.70
2023-01-03T08:01:13.739Z,2.75
2023-01-03T08:03:42.640Z,6.35
2023-01-03T08:06:15.123Z,5.75
2023-01-03T08:08:43.376Z,5.35
2023-01-03T08:11:33.185Z,5.63
2023-01-03T08:14:00.784Z,7.32
2023-01-03T08:16:28.763Z,3.75
2023-01-03T08:18:56.397Z,4.00
2023-01-03T08:21:23.759Z,7.55
2023-01-03T08:23:51.378Z,7.25
2023-01-03T08:26:19.022Z,7.53
2023-01-03T08:28:46.577Z,5.40
2023-01-03T08:31:18.544Z,7.00
2023-01-03T08:34:13.582Z,4.18
2023-01-03T08:36:57.456Z,4.45
2023-01-03T08:39:29.956Z,7.57
2023-01-03T08:42:04.833Z,5.70
2023-01-03T08:44:32.757Z,7.93
2023-01-03T08:47:07.980Z,4.93
2023-01-03T08:49:36.571Z,6.40
2023-01-03T08:52:04.502Z,4.85
2023-01-03T08:54:32.277Z,6.03
2023-01-03T08:56:59.518Z,3.60
2023-01-03T08:59:27.180Z,4.25
2023-01-03T09:01:58.852Z,4.68
2023-01-03T09:04:26.789Z,4.65
2023-01-03T09:06:54.102Z,5.15
2023-01-03T09:09:21.743Z,2.15
2023-01-03T09:11:49.060Z,7.18
2023-01-03T09:14:16.669Z,6.13
2023-01-03T09:16:49.018Z,8.32
2023-01-03T09:19:17.295Z,6.63
2023-01-03T09:21:44.573Z,5.20
2023-01-03T09:24:12.151Z,6.95
2023-01-03T09:26:39.401Z,5.43
2023-01-03T09:29:07.007Z,8.27
2023-01-03T09:31:35.387Z,6.93
2023-01-03T09:34:05.344Z,3.20
2023-01-03T09:36:33.179Z,4.03
2023-01-03T09:39:00.828Z,3.80
2023-01-03T09:41:28.638Z,5.20
2023-01-03T09:44:03.933Z,4.18
2023-01-03T09:46:33.358Z,3.08
2023-01-03T09:49:02.387Z,8.93
2023-01-03T09:51:50.579Z,6.75
2023-01-03T09:54:47.956Z,4.97
2023-01-03T09:57:45.059Z,5.82
2023-01-03T10:00:59.213Z,2.95
2023-01-03T10:03:50.208Z,4.43
2023-01-03T10:06:21.804Z,5.35
2023-01-03T10:09:13.317Z,9.93
2023-01-03T10:11:58.625Z,7.53
2023-01-03T10:14:52.126Z,4.63
2023-01-03T10:17:36.022Z,5.57
2023-01-03T10:20:09.353Z,3.97
2023-01-03T10:22:39.198Z,3.00
2023-01-03T10:25:15.631Z,6.40
2023-01-03T10:27:48.427Z,4.05
2023-01-03T10:30:26.107Z,5.38
2023-01-03T10:33:12.175Z,6.28
2023-01-03T10:35:39.460Z,2.78
2023-01-03T10:38:07.029Z,5.88
2023-01-03T10:40:42.966Z,5.50
2023-01-03T10:43:31.694Z,6.45
2023-01-03T10:46:01.854Z,5.55
2023-01-03T10:49:17.059Z,5.13
2023-01-03T10:51:43.202Z,9.95
2023-01-03T10:56:58.797Z,6.20
2023-01-03T10:59:32.031Z,8.07
2023-01-03T11:01:59.398Z,5.75
2023-01-03T11:04:29.191Z,5.35
2023-01-03T11:07:13.587Z,8.10
2023-01-03T11:09:54.527Z,9.25
2023-01-03T11:12:37.052Z,6.07
2023-01-03T11:15:17.034Z,6.10
2023-01-03T11:18:06.202Z,6.70
2023-01-03T11:20:47.750Z,5.45
2023-01-03T11:23:53.436Z,7.10
2023-01-03T11:26:43.393Z,7.70
2023-01-03T11:29:21.493Z,5.15
2023-01-03T11:32:03.276Z,10.15
2023-01-03T11:34:48.262Z,4.72
2023-01-03T11:37:24.400Z,9.57
2023-01-03T11:40:00.790Z,9.80
2023-01-03T11:42:54.508Z,6.55
2023-01-03T11:45:21.746Z,6.75
2023-01-03T11:48:25.452Z,5.90
2023-01-03T11:50:55.164Z,10.25
2023-01-03T11:53:38.132Z,6.00
2023-01-03T11:56:19.501Z,4.43
2023-01-03T11:59:08.432Z,4.50
2023-01-03T12:01:46.758Z,5.22
2023-01-03T12:04:24.982Z,9.13
2023-01-03T12:07:48.031Z,6.32
2023-01-03T12:10:29.907Z,4.90
2023-01-03T12:13:09.061Z,7.82
2023-01-03T12:16:09.076Z,4.78
2023-01-03T12:18:42.205Z,6.75
2023-01-03T12:21:36.861Z,6.40
2023-01-03T12:24:20.734Z,6.78
2023-01-03T12:26:54.962Z,6.78
2023-01-03T12:29:31.656Z,5.70
2023-01-03T12:32:10.068Z,5.22
2023-01-03T12:34:50.386Z,5.43
2023-01-03T12:37:24.707Z,7.35
2023-01-03T12:39:56.689Z,4.57
2023-01-03T12:42:27.453Z,4.22
2023-01-03T12:45:18.830Z,9.30
2023-01-03T12:47:58.775Z,8.43
2023-01-03T12:50:46.994Z,7.50
2023-01-03T12:53:29.561Z,4.47
2023-01-03T12:56:27.940Z,4.15
2023-01-03T12:59:01.727Z,6.18
2023-01-03T13:01:43.435Z,3.33
2023-01-03T13:07:07.296Z,5.38
2023-01-03T13:09:43.522Z,4.47
2023-01-03T13:12:24.303Z,6.65
2023-01-03T13:14:57.613Z,3.40
2023-01-03T13:17:26.735Z,4.72
2023-01-03T13:19:58.928Z,4.15
2023-01-03T13:25:29.862Z,5.00
2023-01-03T13:28:04.450Z,4.60
2023-01-03T13:30:34.760Z,4.15
2023-01-03T13:33:01.939Z,6.93
2023-01-03T13:35:33.508Z,5.93
2023-01-03T13:38:31.587Z,5.30
2023-01-03T13:41:21.305Z,6.88
2023-01-03T13:43:51.853Z,4.78
2023-01-03T13:46:31.397Z,6.05
2023-01-03T13:48:58.901Z,4.15
2023-01-03T13:51:34.253Z,5.97
2023-01-03T13:54:13.652Z,5.38
2023-01-03T13:56:44.092Z,2.58
2023-01-03T13:59:42.205Z,3.10
2023-01-03T14:02:09.852Z,8.70
2023-01-03T14:04:58.272Z,5.38
2023-01-03T14:07:56.896Z,3.25
2023-01-03T14:10:45.779Z,6.50
2023-01-03T14:13:31.854Z,2.92
2023-01-03T14:16:19.138Z,5.18
2023-01-03T14:19:25.737Z,3.67
2023-01-03T14:22:34.868Z,5.82
2023-01-03T14:25:02.614Z,5.07
2023-01-03T14:27:37.937Z,4.10
2023-01-03T14:30:21.245Z,4.40
2023-01-03T14:32:48.777Z,4.00
2023-01-03T14:35:32.593Z,4.32
2023-01-03T14:38:06.183Z,7.75
2023-01-03T14:40:34.693Z,8.40
2023-01-03T14:43:04.973Z,3.50
2023-01-03T14:45:32.562Z,3.20
2023-01-03T14:47:59.899Z,3.03
2023-01-03T14:50:29.785Z,6.13
2023-01-03T14:52:59.653Z,4.20
2023-01-03T14:55:30.128Z,8.05
2023-01-03T14:57:59.339Z,5.22
2023-01-03T15:00:33.310Z,9.98
2023-01-03T15:03:04.803Z,9.30
2023-01-03T15:05:35.897Z,6.05
2023-01-03T15:08:15.381Z,6.18
2023-01-03T15:10:49.597Z,5.07
2023-01-03T15:13:25.883Z,5.88
2023-01-03T15:15:57.163Z,6.32
2023-01-03T15:18:27.214Z,6.72
2023-01-03T15:20:57.389Z,6.10
2023-01-03T15:23:45.862Z,4.30
2023-01-03T15:26:23.847Z,4.43
2023-01-03T15:29:15.614Z,8.82
2023-01-03T15:31:48.057Z,6.55
2023-01-03T15:34:30.855Z,5.05
2023-01-03T15:37:02.767Z,12.60
2023-01-03T15:40:03.443Z,10.85
2023-01-03T15:42:57.927Z,6.28
2023-01-03T15:45:33.298Z,5.38
2023-01-03T15:48:01.999Z,5.75
2023-01-03T15:50:59.788Z,10.25
2023-01-03T15:53:31.517Z,6.50
2023-01-03T15:56:06.000Z,4.72
2023-01-03T15:58:35.533Z,7.30
2023-01-03T16:01:04.539Z,5.28
2023-01-03T16:03:34.506Z,6.60
2023-01-03T16:06:02.935Z,8.60
2023-01-03T16:08:36.321Z,5.55
2023-01-03T16:11:10.057Z,8.05
2023-01-03T16:13:41.169Z,7.63
2023-01-03T16:16:09.977Z,9.95
2023-01-03T16:18:46.401Z,6.00
2023-01-03T16:21:14.341Z,4.03
2023-01-03T16:23:42.152Z,1.90
2023-01-03T16:26:09.771Z,2.85
2023-01-03T16:28:37.522Z,3.05
2023-01-03T16:31:19.320Z,2.50
2023-01-03T16:33:49.249Z,3.50
2023-01-03T16:36:29.521Z,2.97
2023-01-03T16:38:58.113Z,2.67
2023-01-03T16:41:25.724Z,7.00
2023-01-03T16:43:54.434Z,3.03
2023-01-03T16:46:24.060Z,2.38
2023-01-03T16:48:53.592Z,2.53
2023-01-03T16:51:27.282Z,3.65
2023-01-03T16:53:56.725Z,5.22
2023-01-03T16:56:24.910Z,3.83
2023-01-03T16:58:53.201Z,4.75
2023-01-03T17:01:20.983Z,3.47
2023-01-03T17:03:48.832Z,4.78
2023-01-03T17:06:37.817Z,1.80
2023-01-03T17:09:17.609Z,5.88
2023-01-03T17:11:45.774Z,4.03
2023-01-03T17:14:19.185Z,2.65
2023-01-03T17:16:47.233Z,4.80
2023-01-03T17:20:01.902Z,3.65
2023-01-03T17:22:17.401Z,4.22
2023-01-03T17:24:45.557Z,3.72
2023-01-03T17:27:32.761Z,4.55
2023-01-03T17:30:04.646Z,6.13
2023-01-03T17:32:32.102Z,7.35
2023-01-03T17:35:00.111Z,5.68
2023-01-03T17:37:27.553Z,5.25
2023-01-03T17:40:00.193Z,5.90
2023-01-03T17:42:29.248Z,4.63
2023-01-03T17:45:15.261Z,4.97
2023-01-03T17:48:02.620Z,5.70
2023-01-03T17:50:31.935Z,7.32
2023-01-03T17:53:02.005Z,6.75
2023-01-03T17:55:30.865Z,5.63
2023-01-03T17:58:01.704Z,7.25
2023-01-03T18:00:30.231Z,8.32
2023-01-03T18:03:00.498Z,5.22
2023-01-03T18:05:30.047Z,5.90
2023-01-03T18:08:01.914Z,5.57
2023-01-03T18:10:41.769Z,5.05
2023-01-03T18:13:23.603Z,3.70
2023-01-03T18:15:52.068Z,5.18
2023-01-03T18:18:22.107Z,6.78
2023-01-03T18:20:50.306Z,5.55
2023-01-03T18:23:22.734Z,5.07
2023-01-03T18:25:51.854Z,7.43
2023-01-03T18:28:24.705Z,6.40
2023-01-03T18:30:53.577Z,7.70
2023-01-03T18:33:21.231Z,6.22
2023-01-03T18:35:49.352Z,5.32
2023-01-03T18:38:29.566Z,5.07
2023-01-03T18:41:04.539Z,4.63
2023-01-03T18:43:33.409Z,6.07
2023-01-03T18:46:01.381Z,4.88
2023-01-03T18:48:28.855Z,8.70
2023-01-03T18:50:59.466Z,11.30
2023-01-03T18:53:31.529Z,6.47
2023-01-03T18:56:00.487Z,10.10
2023-01-03T18:58:39.088Z,5.95
2023-01-03T19:01:07.051Z,8.25
2023-01-03T19:03:36.057Z,4.43
2023-01-03T19:06:16.372Z,9.02
2023-01-03T19:08:43.959Z,6.18
2023-01-03T19:11:17.402Z,4.72
2023-01-03T19:13:51.528Z,5.53
2023-01-03T19:16:27.999Z,4.75
2023-01-03T19:18:56.183Z,2.25
2023-01-03T19:21:24.831Z,3.92
2023-01-03T19:24:22.709Z,3.15
2023-01-03T19:27:02.658Z,4.88
2023-01-03T19:29:37.152Z,5.55
2023-01-03T19:32:10.850Z,7.78
2023-01-03T19:34:38.268Z,4.63
2023-01-03T19:37:05.959Z,5.40
2023-01-03T19:39:37.300Z,3.33
2023-01-03T19:42:26.644Z,4.45
2023-01-03T19:44:55.284Z,2.67
2023-01-03T19:47:22.832Z,4.38
2023-01-03T19:49:50.329Z,3.80
2023-01-03T19:52:18.547Z,5.68
2023-01-03T19:54:45.831Z,4.60
2023-01-03T19:57:22.124Z,7.75
2023-01-03T19:59:53.754Z,7.35
2023-01-03T20:05:03.113Z,3.85
2023-01-03T20:07:30.765Z,4.63
2023-01-03T20:09:58.090Z,5.53
2023-01-03T20:12:26.646Z,6.10
2023-01-03T20:14:59.957Z,3.97
2023-01-03T20:17:30.369Z,5.93
2023-01-03T20:19:57.934Z,3.67
2023-01-03T20:23:02.379Z,6.20
2023-01-03T20:25:31.303Z,9.15
2023-01-03T20:28:00.160Z,3.85
2023-01-03T20:30:30.246Z,4.97
2023-01-03T20:32:57.953Z,5.32
2023-01-03T20:38:24.756Z,8.48
2023-01-03T20:40:53.281Z,7.60
2023-01-03T20:43:21.603Z,8.30
2023-01-03T20:45:53.433Z,12.18
2023-01-03T20:48:25.516Z,12.23
2023-01-03T20:50:53.944Z,11.50
2023-01-03T20:53:26.153Z,8.38
2023-01-03T20:55:54.041Z,14.90
2023-01-03T20:58:27.976Z,13.45
2023-01-03T21:01:02.061Z,10.48
2023-01-03T21:03:33.078Z,14.73
2023-01-03T21:06:00.578Z,19.33
2023-01-03T21:08:47.030Z,13.35
2023-01-03T21:11:14.686Z,10.45
2023-01-03T21:13:42.413Z,11.70
2023-01-03T21:16:36.887Z,13.18
2023-01-03T21:19:22.124Z,11.75
2023-01-03T21:21:51.976Z,15.18
2023-01-03T21:24:22.565Z,10.52
2023-01-03T21:26:50.125Z,9.57
2023-01-03T21:29:18.048Z,9.35
2023-01-03T21:31:45.492Z,12.63
2023-01-03T21:34:21.224Z,6.20
2023-01-03T21:36:49.300Z,10.20
2023-01-03T21:39:16.940Z,9.23
2023-01-03T21:42:03.134Z,9.30
2023-01-03T21:44:30.530Z,10.75
2023-01-03T21:46:58.067Z,8.57
2023-01-03T21:49:25.338Z,7.57
2023-01-03T21:51:52.993Z,8.75
2023-01-03T21:54:20.998Z,11.50
2023-01-03T21:56:48.944Z,9.60
2023-01-03T21:59:16.832Z,11.20
2023-01-03T22:02:15.390Z,7.07
2023-01-03T22:04:42.681Z,10.52
2023-01-03T22:07:10.255Z,8.30
2023-01-03T22:09:56.109Z,9.98
2023-01-03T22:12:23.765Z,10.43
2023-01-03T22:14:51.018Z,9.82
2023-01-03T22:17:18.673Z,8.65
2023-01-03T22:19:45.943Z,8.25
2023-01-03T22:22:13.589Z,5.38
2023-01-03T22:24:41.089Z,5.10
2023-01-03T22:27:08.921Z,7.65
2023-01-03T22:29:36.233Z,4.88
2023-01-03T22:32:04.032Z,5.90
2023-01-03T22:34:31.475Z,8.05
2023-01-03T22:36:58.965Z,4.90
2023-01-03T22:39:26.235Z,5.15
2023-01-03T22:41:53.908Z,2.90
2023-01-03T22:44:21.327Z,5.88
2023-01-03T22:46:48.938Z,7.82
2023-01-03T22:49:16.180Z,6.95
2023-01-03T22:51:43.717Z,6.05
2023-01-03T22:54:10.979Z,5.30
2023-01-03T22:56:38.548Z,6.32
2023-01-03T22:59:05.831Z,6.53
2023-01-03T23:01:34.293Z,5.75
2023-01-03T23:04:03.348Z,10.27
2023-01-03T23:06:32.054Z,9.20
2023-01-03T23:09:00.202Z,6.78
2023-01-03T23:11:48.770Z,8.38
2023-01-03T23:14:18.235Z,10.63
2023-01-03T23:16:47.112Z,9.07
2023-01-03T23:19:16.635Z,11.57
2023-01-03T23:21:47.353Z,9.95
2023-01-03T23:24:17.473Z,13.82
2023-01-03T23:26:45.213Z,16.60
2023-01-03T23:29:14.471Z,12.57
2023-01-03T23:31:42.963Z,14.60
2023-01-03T23:34:11.406Z,7.47
2023-01-03T23:36:39.393Z,9.63
2023-01-03T23:39:06.668Z,11.60
2023-01-03T23:41:34.656Z,11.38
2023-01-03T23:44:01.904Z,10.75
2023-01-03T23:46:29.762Z,8.38
2023-01-03T23:48:58.124Z,8.73
2023-01-03T23:51:26.271Z,11.93
2023-01-03T23:53:54.434Z,10.88
2023-01-03T23:56:24.454Z,10.23
2023-01-03T23:58:52.877Z,10.32
